Te Rauamoa, New Zealand
Current Conditions -  °F | °C
As of 10:00 PM on Sunday 25 Jan 2015 (Local Time) from NZAA Reporting Station
Clear Clear  
Wind Chill: 66°   Ceiling: Unl
Heat Index: 66°   Visibility: 6mi
Dew Point: 59°   Wind: 8mph
Humidity: 78%   Direction: 40°NE
Pressure: 30.12"   Gusts: NA
Location:  38.06°S, 174.82°E
Report Text: NZAA 251000Z AUTO 04007KT 9999 NCD 19/15 Q1020 NOSIG
Loading
Personal Weather Stations






























Interactive Weather Map New forecast layout! Learn more

10-Day Weather Forecast

Advertisements
Track Severe Weather on mobile